Time;durP1;ratioP1;P1;durP2;ratioP2;P2;SDS_P1;SDS_P2;PMS_P1;PMS_P2;Temp;Humidity;BMP_temperature;BMP_pressure;BME280_temperature;BME280_humidity;BME280_pressure;Samples;Min_cycle;Max_cycle;Signal;HPM_P1;HPM_P2
2021/06/04 00:01:46;;;;;;;15.90;8.10;;;18.90;99.90;;;;;;4994288;28;20117;-70
2021/06/04 00:04:12;;;;;;;16.48;9.18;;;18.80;99.90;;;;;;4992793;28;20053;-70
2021/06/04 00:06:38;;;;;;;12.57;8.75;;;18.80;99.90;;;;;;4994486;28;20026;-69
2021/06/04 00:09:08;;;;;;;14.70;8.98;;;18.70;99.90;;;;;;4994620;28;20028;-69
2021/06/04 00:11:43;;;;;;;14.05;7.90;;;18.70;99.90;;;;;;4993998;28;20029;-70
2021/06/04 00:14:11;;;;;;;12.60;8.05;;;18.60;99.90;;;;;;4993020;28;20033;-69
2021/06/04 00:16:45;;;;;;;13.38;7.60;;;18.60;99.90;;;;;;4994203;28;20418;-71
2021/06/04 00:19:16;;;;;;;10.98;7.68;;;18.60;99.90;;;;;;4994200;28;20026;-70
2021/06/04 00:21:48;;;;;;;15.55;9.95;;;18.50;99.90;;;;;;4993933;28;20026;-70
2021/06/04 00:24:14;;;;;;;11.15;8.93;;;18.50;99.90;;;;;;4994342;28;20118;-70
2021/06/04 00:26:43;;;;;;;14.10;8.65;;;18.50;99.90;;;;;;4993598;28;20023;-70
2021/06/04 00:29:09;;;;;;;12.82;8.45;;;18.50;99.90;;;;;;4992526;28;20037;-70
2021/06/04 00:31:36;;;;;;;15.13;8.57;;;18.50;99.90;;;;;;4993408;28;20038;-70
2021/06/04 00:34:03;;;;;;;12.45;8.73;;;18.50;99.90;;;;;;4992903;28;20125;-70
2021/06/04 00:36:28;;;;;;;14.23;8.15;;;18.40;99.90;;;;;;4993169;28;20066;-70
2021/06/04 00:38:56;;;;;;;12.70;8.40;;;18.40;99.90;;;;;;4992932;28;20449;-70
2021/06/04 00:41:25;;;;;;;;;;;18.40;99.90;;;;;;4993277;28;20391;-71
2021/06/04 00:43:53;;;;;;;16.70;9.23;;;18.30;99.90;;;;;;4993777;28;19910;-70
2021/06/04 00:46:20;;;;;;;23.73;11.07;;;18.30;99.90;;;;;;4993806;28;20031;-70
2021/06/04 00:48:45;;;;;;;20.37;10.87;;;18.20;99.90;;;;;;4993665;28;20498;-70
2021/06/04 00:51:37;;;;;;;16.55;9.13;;;18.20;99.90;;;;;;4992642;28;20278;-70
2021/06/04 00:54:04;;;;;;;20.02;10.75;;;18.20;99.90;;;;;;4991186;28;20035;-70
2021/06/04 00:56:31;;;;;;;20.90;10.73;;;18.20;99.90;;;;;;4993728;28;20483;-70
2021/06/04 00:58:57;;;;;;;17.63;10.10;;;18.20;99.90;;;;;;4992372;28;20030;-70
2021/06/04 01:01:29;;;;;;;14.27;10.70;;;18.20;99.90;;;;;;4993154;28;20108;-70
2021/06/04 01:04:02;;;;;;;14.90;10.23;;;18.20;99.90;;;;;;4991299;28;20026;-70
2021/06/04 01:06:47;;;;;;;17.23;10.48;;;18.20;99.90;;;;;;4992803;28;20034;-70
2021/06/04 01:09:43;;;;;;;17.27;11.80;;;18.20;99.90;;;;;;4993750;28;20483;-70
2021/06/04 01:12:24;;;;;;;20.50;11.07;;;18.10;99.90;;;;;;4991119;28;20077;-70
2021/06/04 01:15:06;;;;;;;18.60;10.85;;;18.10;99.90;;;;;;4992041;28;20072;-70
2021/06/04 01:17:42;;;;;;;18.08;10.77;;;18.10;99.90;;;;;;4990026;28;20026;-70
2021/06/04 01:20:17;;;;;;;20.80;11.52;;;18.10;99.90;;;;;;4991787;28;20565;-70
2021/06/04 01:22:51;;;;;;;19.92;12.05;;;18.00;99.90;;;;;;4993727;28;20073;-69
2021/06/04 01:25:53;;;;;;;19.73;12.13;;;17.90;99.90;;;;;;4993003;28;20378;-70
2021/06/04 01:28:18;;;;;;;23.75;12.73;;;17.90;99.90;;;;;;4991129;28;20129;-69
2021/06/04 01:31:06;;;;;;;30.58;13.68;;;17.90;99.90;;;;;;4992966;28;20125;-70
2021/06/04 01:33:57;;;;;;;22.38;12.27;;;17.80;99.90;;;;;;4989854;28;20057;-71
2021/06/04 01:36:30;;;;;;;17.13;11.35;;;17.80;99.90;;;;;;4991595;28;20033;-70
2021/06/04 01:39:00;;;;;;;23.55;11.95;;;17.80;99.90;;;;;;4993167;28;20141;-70
2021/06/04 01:41:28;;;;;;;21.95;11.90;;;17.80;99.90;;;;;;4992161;28;20494;-70
2021/06/04 01:44:09;;;;;;;22.13;12.88;;;17.80;99.90;;;;;;4992828;28;20022;-70
2021/06/04 01:46:44;;;;;;;30.63;14.55;;;17.70;99.90;;;;;;4984100;28;20413;-70
2021/06/04 01:49:15;;;;;;;24.30;14.70;;;17.70;99.90;;;;;;4993345;28;20027;-69
2021/06/04 01:51:54;;;;;;;33.58;15.90;;;17.60;99.90;;;;;;4992119;28;20030;-72
2021/06/04 01:54:32;;;;;;;24.52;16.10;;;17.50;99.90;;;;;;4986681;28;20030;-71
2021/06/04 01:57:00;;;;;;;;;;;17.50;99.90;;;;;;4992324;28;20026;-70
2021/06/04 01:59:33;;;;;;;24.30;13.25;;;17.50;99.90;;;;;;4992768;28;20002;-70
2021/06/04 02:02:00;;;;;;;30.98;13.90;;;17.50;99.90;;;;;;4994545;28;20037;-70
2021/06/04 02:04:50;;;;;;;21.15;12.38;;;17.60;99.90;;;;;;4995541;28;20076;-70
2021/06/04 02:07:20;;;;;;;27.00;13.32;;;17.60;99.90;;;;;;4994920;28;20438;-70
2021/06/04 02:09:47;;;;;;;23.27;13.32;;;17.50;99.90;;;;;;4996607;28;20371;-70
2021/06/04 02:12:13;;;;;;;23.33;13.13;;;17.60;99.90;;;;;;4995240;28;20037;-69
2021/06/04 02:14:51;;;;;;;21.20;13.68;;;17.50;99.90;;;;;;4995999;28;20390;-70
2021/06/04 02:17:42;;;;;;;21.63;13.82;;;17.50;99.90;;;;;;4996413;28;20069;-70
2021/06/04 02:20:17;;;;;;;24.95;13.05;;;17.50;99.90;;;;;;4996647;28;20028;-70
2021/06/04 02:23:06;;;;;;;20.13;12.40;;;17.40;99.90;;;;;;4992640;28;20029;-70
2021/06/04 02:25:47;;;;;;;23.60;14.18;;;17.40;99.90;;;;;;4996827;28;20101;-70
2021/06/04 02:28:28;;;;;;;23.88;13.38;;;17.40;99.90;;;;;;4995849;28;20030;-70
2021/06/04 02:31:05;;;;;;;25.00;14.68;;;17.30;99.90;;;;;;4995894;28;20389;-70
2021/06/04 02:33:42;;;;;;;24.55;14.93;;;17.30;99.90;;;;;;4996231;28;20498;-69
2021/06/04 02:36:13;;;;;;;27.00;15.93;;;17.30;99.90;;;;;;4992607;28;20140;-71
2021/06/04 02:39:02;;;;;;;24.92;14.10;;;17.20;99.90;;;;;;4995113;28;20026;-70
2021/06/04 02:41:33;;;;;;;30.55;14.13;;;17.20;99.90;;;;;;4995680;28;20049;-70
2021/06/04 02:44:13;;;;;;;31.20;15.68;;;17.20;99.90;;;;;;4995684;28;20034;-70
2021/06/04 02:46:43;;;;;;;26.48;13.77;;;17.20;99.90;;;;;;5003456;28;20023;-70
2021/06/04 02:49:11;;;;;;;28.73;17.30;;;17.20;99.90;;;;;;4982239;28;20049;-69
2021/06/04 02:51:50;;;;;;;;;;;17.20;99.90;;;;;;4995340;28;20121;-69
2021/06/04 02:54:20;;;;;;;29.63;17.23;;;17.20;99.90;;;;;;4995644;28;20123;-69
2021/06/04 02:56:52;;;;;;;28.27;15.30;;;17.20;99.90;;;;;;4995574;28;20493;-70
2021/06/04 02:59:21;;;;;;;35.67;16.83;;;17.20;99.90;;;;;;4994453;28;20036;-69
2021/06/04 03:02:12;;;;;;;24.60;15.80;;;17.20;99.90;;;;;;5004887;28;20495;-69
2021/06/04 03:04:42;;;;;;;27.10;15.93;;;17.20;99.90;;;;;;4989707;28;20049;-70
2021/06/04 03:07:13;;;;;;;26.38;15.90;;;17.10;99.90;;;;;;4995141;28;20029;-69
2021/06/04 03:09:41;;;;;;;31.73;15.77;;;17.10;99.90;;;;;;4995253;28;20039;-69
2021/06/04 03:12:19;;;;;;;27.02;15.45;;;17.10;99.90;;;;;;4994788;28;20030;-69
2021/06/04 03:14:47;;;;;;;27.15;16.63;;;17.10;99.90;;;;;;4994260;28;20081;-70
2021/06/04 03:17:14;;;;;;;29.80;16.23;;;17.10;99.90;;;;;;4994133;28;20113;-69
2021/06/04 03:19:40;;;;;;;24.60;14.60;;;17.10;99.90;;;;;;4995312;28;20540;-69
2021/06/04 03:22:29;;;;;;;29.48;16.35;;;17.10;99.90;;;;;;4993479;28;20269;-70
2021/06/04 03:24:58;;;;;;;28.00;15.90;;;17.10;99.90;;;;;;4994972;28;20038;-69
2021/06/04 03:27:24;;;;;;;30.23;16.65;;;17.10;99.90;;;;;;4993282;28;20038;-69
2021/06/04 03:29:51;;;;;;;31.20;16.13;;;17.10;99.90;;;;;;4994820;28;20030;-69
2021/06/04 03:32:17;;;;;;;26.63;15.30;;;17.10;99.90;;;;;;4992849;28;20116;-70
2021/06/04 03:34:44;;;;;;;30.00;16.45;;;17.10;99.90;;;;;;4992534;28;20321;-71
2021/06/04 03:37:11;;;;;;;31.38;17.48;;;17.20;99.90;;;;;;4993845;28;20026;-68
2021/06/04 03:39:42;;;;;;;37.53;20.15;;;17.30;99.90;;;;;;4995359;28;20058;-69
2021/06/04 03:42:12;;;;;;;33.17;18.38;;;17.20;99.90;;;;;;4995150;28;20046;-70
2021/06/04 03:44:40;;;;;;;33.00;19.85;;;17.30;99.90;;;;;;4994452;28;20037;-70
2021/06/04 03:47:06;;;;;;;37.10;19.08;;;17.20;99.90;;;;;;4992724;28;20033;-71
2021/06/04 03:49:32;;;;;;;35.85;17.77;;;17.20;99.90;;;;;;4993461;28;20109;-69
2021/06/04 03:51:59;;;;;;;34.17;19.50;;;17.20;99.90;;;;;;4987005;28;20475;-70
2021/06/04 03:54:34;;;;;;;39.20;20.17;;;17.30;99.90;;;;;;4992239;28;20426;-70
2021/06/04 03:57:00;;;;;;;30.70;19.92;;;17.30;99.90;;;;;;4994133;28;20041;-70
2021/06/04 03:59:27;;;;;;;22.43;14.07;;;17.30;99.90;;;;;;4993665;28;20073;-70
2021/06/04 04:01:58;;;;;;;30.83;17.05;;;17.30;99.90;;;;;;4994374;28;20046;-70
2021/06/04 04:04:24;;;;;;;40.15;18.55;;;17.30;99.90;;;;;;4992284;28;20035;-71
2021/06/04 04:06:51;;;;;;;35.92;19.85;;;17.30;99.90;;;;;;4992720;28;20542;-72
2021/06/04 04:09:17;;;;;;;33.47;18.95;;;17.40;99.90;;;;;;4993944;28;20383;-70
2021/06/04 04:11:45;;;;;;;24.35;15.90;;;17.40;99.90;;;;;;4993737;28;20030;-70
2021/06/04 04:14:10;;;;;;;31.70;18.02;;;17.40;99.90;;;;;;4993779;28;20066;-70
2021/06/04 04:16:36;;;;;;;29.95;17.50;;;17.40;99.90;;;;;;4993680;28;20431;-70
2021/06/04 04:19:03;;;;;;;31.15;17.10;;;17.40;99.90;;;;;;4991806;28;20383;-70
2021/06/04 04:21:29;;;;;;;29.60;17.50;;;17.50;99.90;;;;;;4992506;28;20034;-70
2021/06/04 04:23:58;;;;;;;36.30;20.40;;;17.50;99.90;;;;;;4992389;28;20014;-70
2021/06/04 04:26:30;;;;;;;33.60;18.17;;;17.50;99.90;;;;;;4993882;28;20026;-70
2021/06/04 04:28:56;;;;;;;31.38;17.50;;;17.50;99.90;;;;;;4987948;28;20042;-70
2021/06/04 04:31:28;;;;;;;34.30;17.75;;;17.50;99.90;;;;;;4992501;28;20499;-70
2021/06/04 04:33:57;;;;;;;40.83;19.10;;;17.50;99.90;;;;;;5003444;28;20049;-70
2021/06/04 04:36:30;;;;;;;38.80;21.75;;;17.60;99.90;;;;;;4989582;28;20031;-70
2021/06/04 04:38:56;;;;;;;39.22;20.65;;;17.60;99.90;;;;;;4993626;28;20022;-70
2021/06/04 04:41:22;;;;;;;37.65;19.63;;;17.60;99.90;;;;;;4993250;28;20077;-70
2021/06/04 04:43:50;;;;;;;33.92;18.75;;;17.70;99.90;;;;;;4993181;28;20065;-70
2021/06/04 04:46:18;;;;;;;34.50;19.73;;;17.70;99.90;;;;;;4992967;28;20034;-70
2021/06/04 04:48:45;;;;;;;32.17;18.67;;;17.80;99.90;;;;;;4992750;28;20066;-70
2021/06/04 04:51:13;;;;;;;36.05;19.15;;;17.80;99.90;;;;;;4991950;28;20037;-72
2021/06/04 04:53:39;;;;;;;29.88;17.02;;;17.90;99.90;;;;;;4990673;28;20023;-70
2021/06/04 04:56:07;;;;;;;33.55;18.35;;;17.90;99.90;;;;;;4992358;28;20522;-71
2021/06/04 04:58:33;;;;;;;32.95;18.98;;;18.00;99.90;;;;;;4993811;28;20064;-71
2021/06/04 05:00:59;;;;;;;37.10;20.52;;;18.10;99.90;;;;;;4993175;28;20109;-70
2021/06/04 05:03:26;;;;;;;42.88;21.73;;;18.20;99.90;;;;;;4993455;28;20088;-70
2021/06/04 05:05:52;;;;;;;45.60;22.67;;;18.30;99.90;;;;;;4993259;28;20068;-71
2021/06/04 05:08:18;;;;;;;49.67;22.83;;;18.40;99.90;;;;;;4993852;28;20030;-72
2021/06/04 05:10:45;;;;;;;37.22;21.52;;;18.40;99.90;;;;;;4992992;28;20475;-70
2021/06/04 05:13:11;;;;;;;46.28;21.60;;;18.40;99.90;;;;;;4993068;28;20053;-70
2021/06/04 05:15:38;;;;;;;36.95;21.10;;;18.40;99.90;;;;;;4992379;28;20073;-70
2021/06/04 05:18:05;;;;;;;42.72;21.98;;;18.50;99.90;;;;;;4992721;28;20467;-70
2021/06/04 05:20:31;;;;;;;35.63;19.25;;;18.60;99.90;;;;;;4993675;28;20670;-71
2021/06/04 05:22:57;;;;;;;35.60;18.83;;;18.70;99.90;;;;;;4991899;28;20026;-70
2021/06/04 05:25:31;;;;;;;44.03;20.58;;;18.80;99.90;;;;;;4992915;28;20113;-70
2021/06/04 05:27:58;;;;;;;34.90;20.67;;;18.90;99.90;;;;;;4992147;28;20165;-70
2021/06/04 05:30:39;;;;;;;37.15;18.75;;;19.00;99.90;;;;;;4993061;28;20030;-70
2021/06/04 05:33:07;;;;;;;34.65;20.42;;;19.20;99.90;;;;;;4987939;28;20054;-70
2021/06/04 05:35:33;;;;;;;30.83;17.83;;;19.30;99.90;;;;;;4994086;28;20486;-71
2021/06/04 05:37:59;;;;;;;37.40;19.45;;;19.40;99.90;;;;;;4996199;28;20026;-70
2021/06/04 05:40:31;;;;;;;34.90;19.17;;;19.50;99.90;;;;;;4997494;28;20114;-70
2021/06/04 05:42:58;;;;;;;40.15;19.95;;;19.50;99.90;;;;;;4997248;28;20069;-70
2021/06/04 05:45:27;;;;;;;36.13;20.63;;;19.50;99.90;;;;;;4996958;28;20479;-70
2021/06/04 05:47:53;;;;;;;32.15;18.40;;;19.60;99.90;;;;;;4996322;28;20069;-70
2021/06/04 05:50:24;;;;;;;39.30;20.42;;;19.60;99.90;;;;;;4997248;28;20026;-70
2021/06/04 05:52:50;;;;;;;38.92;19.08;;;19.70;99.90;;;;;;4996212;28;20026;-70
2021/06/04 05:55:18;;;;;;;35.70;18.33;;;19.70;99.90;;;;;;4995861;28;20108;-70
2021/06/04 05:57:44;;;;;;;44.95;18.23;;;20.10;99.90;;;;;;4997393;28;20026;-70
2021/06/04 06:00:16;;;;;;;34.35;17.17;;;20.50;99.90;;;;;;4996158;28;20101;-70
2021/06/04 06:02:42;;;;;;;35.13;18.00;;;20.90;99.90;;;;;;4992311;28;20073;-69
2021/06/04 06:05:08;;;;;;;28.15;15.00;;;21.20;99.90;;;;;;4996025;28;20030;-70
2021/06/04 06:07:35;;;;;;;27.42;15.13;;;21.90;99.90;;;;;;5011211;28;20030;-72
2021/06/04 06:10:00;;;;;;;33.30;15.27;;;22.50;99.90;;;;;;4995155;28;20065;-70
2021/06/04 06:12:26;;;;;;;18.45;12.35;;;22.40;99.90;;;;;;4996551;28;20034;-70
2021/06/04 06:14:52;;;;;;;20.17;12.10;;;22.30;99.90;;;;;;4996696;28;20080;-70
2021/06/04 06:17:17;;;;;;;23.83;12.25;;;22.60;99.90;;;;;;4996327;28;20030;-70
2021/06/04 06:19:43;;;;;;;26.38;11.35;;;23.80;99.90;;;;;;4996753;28;20509;-70
2021/06/04 06:22:09;;;;;;;23.70;11.43;;;25.60;99.90;;;;;;4995432;28;20034;-70
2021/06/04 06:24:36;;;;;;;19.23;9.87;;;27.20;99.90;;;;;;4996644;28;20027;-70
2021/06/04 06:27:02;;;;;;;16.17;9.25;;;28.50;98.70;;;;;;4995687;28;20023;-72
2021/06/04 06:29:29;;;;;;;17.65;9.15;;;29.40;96.50;;;;;;4995974;28;20030;-70
2021/06/04 06:31:55;;;;;;;17.30;9.02;;;29.70;96.60;;;;;;4995572;28;20129;-70
2021/06/04 06:34:21;;;;;;;18.10;10.38;;;30.50;95.70;;;;;;4996459;28;20054;-72
2021/06/04 06:36:47;;;;;;;17.25;9.18;;;30.60;94.40;;;;;;4996320;28;20057;-70
2021/06/04 06:39:17;;;;;;;12.65;7.93;;;30.80;94.50;;;;;;4995308;28;20035;-71
2021/06/04 06:41:45;;;;;;;22.17;10.07;;;30.70;94.60;;;;;;4996531;28;20411;-71
2021/06/04 06:44:12;;;;;;;21.70;11.25;;;30.50;94.30;;;;;;4996417;28;20022;-70
2021/06/04 06:46:39;;;;;;;21.83;10.70;;;30.50;94.10;;;;;;4995566;28;20030;-70
2021/06/04 06:49:05;;;;;;;31.83;11.05;;;29.90;94.20;;;;;;4995963;28;20025;-70
2021/06/04 06:51:33;;;;;;;30.00;10.77;;;29.60;94.50;;;;;;4995955;28;20015;-69
2021/06/04 06:53:59;;;;;;;16.00;8.95;;;29.30;94.60;;;;;;4994476;28;20034;-70
2021/06/04 06:56:25;;;;;;;22.10;10.05;;;28.50;95.10;;;;;;4995485;28;20034;-69
2021/06/04 06:58:51;;;;;;;17.38;9.95;;;27.50;96.00;;;;;;4995071;28;20125;-70
2021/06/04 07:01:17;;;;;;;25.67;10.70;;;26.50;96.70;;;;;;4995535;28;20134;-70
2021/06/04 07:03:43;;;;;;;23.48;12.23;;;26.00;97.60;;;;;;4995091;28;20045;-72
2021/06/04 07:06:17;;;;;;;21.42;11.00;;;26.20;97.70;;;;;;4995521;28;20454;-71
2021/06/04 07:08:43;;;;;;;26.15;11.60;;;26.60;97.30;;;;;;4995758;28;20042;-72
2021/06/04 07:11:09;;;;;;;25.63;11.93;;;26.90;96.90;;;;;;4994568;28;20022;-70
2021/06/04 07:13:35;;;;;;;22.70;11.63;;;27.60;96.60;;;;;;4995367;28;20022;-71
2021/06/04 07:16:05;;;;;;;19.45;11.93;;;27.80;96.40;;;;;;4990751;28;20399;-69
2021/06/04 07:18:31;;;;;;;18.58;11.68;;;27.80;96.50;;;;;;4994117;28;20033;-71
2021/06/04 07:20:57;;;;;;;21.25;11.82;;;27.80;96.20;;;;;;4993996;28;20026;-72
2021/06/04 07:23:25;;;;;;;19.65;10.30;;;28.10;96.30;;;;;;4995698;28;20105;-68
2021/06/04 07:25:51;;;;;;;17.60;11.07;;;28.00;96.00;;;;;;4995058;28;20101;-71
2021/06/04 07:28:20;;;;;;;19.65;12.73;;;27.60;96.10;;;;;;4993389;28;20057;-70
2021/06/04 07:30:49;;;;;;;19.70;10.00;;;27.70;96.00;;;;;;4995182;28;20042;-70
2021/06/04 07:33:30;;;;;;;16.67;10.52;;;27.70;96.50;;;;;;4994383;28;20051;-77
2021/06/04 07:36:00;;;;;;;14.75;9.63;;;27.70;96.40;;;;;;4995127;28;20121;-72
2021/06/04 07:38:25;;;;;;;19.48;10.38;;;27.50;96.60;;;;;;4994178;28;20105;-72
2021/06/04 07:40:53;;;;;;;15.40;9.45;;;27.00;97.50;;;;;;4995831;28;20546;-74
2021/06/04 07:43:23;;;;;;;23.83;11.70;;;26.30;97.30;;;;;;4995091;28;20042;-72
2021/06/04 07:45:50;;;;;;;15.02;8.80;;;25.80;97.70;;;;;;4994021;28;20498;-72
2021/06/04 07:48:19;;;;;;;16.37;10.30;;;25.60;98.20;;;;;;4993230;28;20160;-73
2021/06/04 07:50:45;;;;;;;18.23;10.27;;;25.60;98.50;;;;;;4992608;28;20269;-68
2021/06/04 07:53:14;;;;;;;24.43;9.77;;;25.30;98.30;;;;;;4995177;28;20019;-71
2021/06/04 07:55:41;;;;;;;17.33;9.35;;;25.10;98.80;;;;;;4993492;28;20037;-69
2021/06/04 07:58:06;;;;;;;9.57;7.03;;;24.90;98.70;;;;;;4992705;28;20113;-69
2021/06/04 08:00:33;;;;;;;12.57;8.35;;;25.20;98.60;;;;;;4994275;28;20447;-71
2021/06/04 08:03:02;;;;;;;19.17;9.33;;;25.40;99.00;;;;;;4993019;28;20463;-70
2021/06/04 08:05:29;;;;;;;17.92;9.65;;;25.60;97.90;;;;;;4993818;28;20812;-71
2021/06/04 08:07:55;;;;;;;9.18;6.68;;;25.80;97.80;;;;;;4993052;28;20026;-70
2021/06/04 08:10:21;;;;;;;14.57;8.43;;;26.00;98.00;;;;;;4994599;28;20482;-70
2021/06/04 08:12:47;;;;;;;10.80;5.70;;;26.00;97.60;;;;;;4993547;28;20026;-70
2021/06/04 08:15:35;;;;;;;17.08;8.85;;;26.20;97.90;;;;;;4994494;28;20044;-70
2021/06/04 08:18:01;;;;;;;11.77;8.60;;;26.30;97.70;;;;;;4994456;28;20034;-71
2021/06/04 08:20:30;;;;;;;12.13;7.47;;;25.80;98.00;;;;;;4992967;28;20026;-71
2021/06/04 08:22:59;;;;;;;14.82;8.13;;;25.50;98.40;;;;;;4994398;28;20089;-69
2021/06/04 08:25:32;;;;;;;18.00;7.03;;;25.70;98.30;;;;;;4992773;28;20640;-70
2021/06/04 08:27:58;;;;;;;13.57;7.15;;;26.20;98.00;;;;;;4994521;28;20029;-70
2021/06/04 08:30:25;;;;;;;18.70;9.48;;;26.70;97.80;;;;;;4994405;28;20375;-70
2021/06/04 08:32:50;;;;;;;13.75;8.63;;;27.10;97.40;;;;;;4993716;28;20042;-70
2021/06/04 08:35:17;;;;;;;10.35;6.10;;;27.10;96.90;;;;;;4993199;28;20184;-70
2021/06/04 08:37:43;;;;;;;10.55;6.22;;;27.00;97.40;;;;;;4994211;28;20030;-70
2021/06/04 08:40:14;;;;;;;7.70;5.43;;;27.40;97.10;;;;;;4992396;28;20033;-71
2021/06/04 08:42:39;;;;;;;13.95;8.45;;;27.70;96.90;;;;;;4974801;28;20035;-70
2021/06/04 08:45:32;;;;;;;15.52;7.55;;;28.00;96.50;;;;;;4981712;28;20038;-71
2021/06/04 08:48:25;;;;;;;15.93;8.90;;;28.00;96.40;;;;;;5002336;28;20045;-70
2021/06/04 08:51:13;;;;;;;13.00;5.30;;;27.60;96.70;;;;;;4994243;28;20066;-71
2021/06/04 08:53:44;;;;;;;13.35;7.85;;;27.70;96.80;;;;;;4993553;28;20105;-69
2021/06/04 08:56:15;;;;;;;14.98;8.77;;;28.00;96.60;;;;;;4994111;28;20030;-69
2021/06/04 08:58:59;;;;;;;12.82;8.07;;;28.10;96.60;;;;;;4993222;28;20482;-69
2021/06/04 09:01:46;;;;;;;15.90;8.98;;;27.90;96.90;;;;;;4993739;28;20482;-69
2021/06/04 09:04:14;;;;;;;13.65;7.22;;;28.10;96.60;;;;;;4993816;28;20092;-69
2021/06/04 09:06:45;;;;;;;13.32;7.20;;;27.80;97.20;;;;;;4993978;28;20034;-70
2021/06/04 09:09:21;;;;;;;13.15;7.25;;;28.00;96.90;;;;;;4993889;28;20026;-70
2021/06/04 09:11:59;;;;;;;11.57;6.73;;;27.40;96.80;;;;;;4991608;28;20034;-70
2021/06/04 09:14:26;;;;;;;13.05;9.38;;;27.60;97.20;;;;;;4993696;28;20061;-69
2021/06/04 09:16:57;;;;;;;16.70;9.35;;;27.40;97.80;;;;;;4992502;28;20088;-70
2021/06/04 09:19:31;;;;;;;11.70;8.30;;;27.30;97.90;;;;;;4992494;28;20062;-69
2021/06/04 09:21:57;;;;;;;15.50;8.43;;;27.00;98.90;;;;;;4993898;28;20027;-69
2021/06/04 09:24:50;;;;;;;13.43;7.45;;;26.40;99.10;;;;;;4992872;28;20014;-69
2021/06/04 09:27:30;;;;;;;13.48;8.80;;;26.20;98.70;;;;;;4988944;28;20039;-70
2021/06/04 09:30:22;;;;;;;15.80;9.27;;;25.90;98.90;;;;;;4990639;28;20355;-70
2021/06/04 09:33:05;;;;;;;14.00;9.30;;;25.60;99.70;;;;;;4993123;28;20121;-71
2021/06/04 09:35:31;;;;;;;15.55;9.07;;;25.30;99.90;;;;;;4992166;28;20475;-70
2021/06/04 09:38:27;;;;;;;15.67;8.80;;;25.20;99.90;;;;;;4993108;28;20026;-70
2021/06/04 09:40:54;;;;;;;15.32;9.32;;;25.00;99.90;;;;;;4988517;28;20037;-71
2021/06/04 09:43:29;;;;;;;15.80;8.13;;;24.80;99.90;;;;;;4992918;28;20023;-71
2021/06/04 09:46:00;;;;;;;10.95;7.68;;;24.70;99.90;;;;;;4992186;28;20058;-70
2021/06/04 09:48:55;;;;;;;13.70;7.68;;;24.40;99.90;;;;;;4993644;28;20092;-69
2021/06/04 09:51:32;;;;;;;17.33;8.18;;;24.40;99.90;;;;;;4992194;28;20058;-69
2021/06/04 09:54:23;;;;;;;11.93;8.27;;;24.50;99.90;;;;;;4993450;28;20034;-70
2021/06/04 09:56:49;;;;;;;14.73;7.85;;;24.60;99.90;;;;;;4993414;28;20042;-70
2021/06/04 09:59:21;;;;;;;11.18;7.43;;;24.60;99.90;;;;;;4993128;28;20038;-69
2021/06/04 10:01:53;;;;;;;14.32;7.30;;;24.80;99.90;;;;;;4973945;28;20041;-70
2021/06/04 10:04:30;;;;;;;10.65;7.60;;;25.00;99.90;;;;;;4985913;28;20057;-69
2021/06/04 10:07:13;;;;;;;;;;;25.10;99.90;;;;;;4993770;28;20041;-69
2021/06/04 10:09:42;;;;;;;13.23;7.60;;;25.20;99.90;;;;;;4992506;28;19914;-70
2021/06/04 10:12:15;;;;;;;17.05;8.75;;;25.60;99.90;;;;;;4991302;28;20041;-70
2021/06/04 10:20:23;;;;;;;13.30;8.00;;;26.40;99.60;;;;;;4993351;28;20045;-70
2021/06/04 10:22:53;;;;;;;10.60;7.07;;;26.70;99.90;;;;;;4994741;28;20089;-71
2021/06/04 10:25:28;;;;;;;15.07;8.60;;;26.90;98.60;;;;;;4996593;28;20030;-71
2021/06/04 10:27:56;;;;;;;13.98;8.38;;;26.60;99.30;;;;;;4996907;28;22038;-70
2021/06/04 10:30:25;;;;;;;15.30;8.43;;;26.20;99.40;;;;;;4996539;28;20073;-69
2021/06/04 10:32:53;;;;;;;21.85;9.20;;;26.10;99.60;;;;;;4994998;28;20133;-70
2021/06/04 10:35:28;;;;;;;15.65;9.70;;;25.90;99.90;;;;;;4995281;28;20133;-70
2021/06/04 10:38:08;;;;;;;23.95;8.73;;;25.70;99.90;;;;;;4996570;28;20125;-70
2021/06/04 10:40:49;;;;;;;15.95;7.97;;;25.60;99.80;;;;;;4996706;28;20027;-70
2021/06/04 10:43:50;;;;;;;12.35;7.97;;;25.60;99.80;;;;;;4996392;28;20027;-70
2021/06/04 10:46:37;;;;;;;12.65;8.55;;;25.60;99.90;;;;;;4984434;28;20026;-69
2021/06/04 10:49:27;;;;;;;15.35;9.05;;;25.90;99.90;;;;;;4992002;28;20023;-70
2021/06/04 10:52:01;;;;;;;14.02;9.23;;;26.40;99.80;;;;;;5006585;28;20026;-70
2021/06/04 10:54:45;;;;;;;18.52;11.65;;;26.50;99.50;;;;;;4996052;28;20030;-69
2021/06/04 10:57:33;;;;;;;14.45;9.35;;;26.30;99.80;;;;;;4996156;28;20018;-70
2021/06/04 11:00:32;;;;;;;15.00;9.52;;;26.00;99.90;;;;;;4995981;28;20467;-70
2021/06/04 11:03:15;;;;;;;16.67;8.88;;;26.00;99.90;;;;;;4995542;28;20034;-69
2021/06/04 11:05:51;;;;;;;14.00;8.93;;;26.10;99.90;;;;;;4995529;28;20018;-69
2021/06/04 11:08:32;;;;;;;14.25;9.77;;;26.10;99.90;;;;;;4996088;28;20030;-70
2021/06/04 11:11:06;;;;;;;20.55;10.30;;;26.20;99.90;;;;;;4995895;28;20038;-71
2021/06/04 11:13:44;;;;;;;17.15;9.50;;;26.00;99.90;;;;;;4994815;28;20046;-69
2021/06/04 11:16:40;;;;;;;15.32;8.90;;;26.00;99.90;;;;;;4994250;28;20129;-68
2021/06/04 11:19:14;;;;;;;14.55;9.00;;;26.10;99.90;;;;;;4995581;28;20033;-68
2021/06/04 11:22:02;;;;;;;17.35;8.98;;;25.90;99.90;;;;;;4993605;28;20031;-68
2021/06/04 11:25:00;;;;;;;16.23;7.60;;;25.80;99.90;;;;;;4994766;28;20023;-68
2021/06/04 11:27:42;;;;;;;12.90;7.78;;;25.90;99.90;;;;;;4995319;28;20066;-68
2021/06/04 11:30:20;;;;;;;15.13;7.43;;;26.20;99.50;;;;;;4993524;28;20038;-68
2021/06/04 11:32:59;;;;;;;19.52;8.40;;;26.50;99.70;;;;;;4992727;28;20055;-69
2021/06/04 11:35:29;;;;;;;15.60;8.18;;;26.80;99.20;;;;;;4995306;28;20374;-69
2021/06/04 11:38:32;;;;;;;15.07;8.25;;;26.80;99.70;;;;;;4994830;28;20022;-69
2021/06/04 11:41:13;;;;;;;15.50;7.97;;;26.90;98.90;;;;;;4993605;28;20034;-68
2021/06/04 11:43:42;;;;;;;8.93;7.63;;;26.70;98.70;;;;;;4993743;28;20029;-68
2021/06/04 11:46:16;;;;;;;15.05;7.43;;;26.60;99.50;;;;;;4993697;28;20399;-68
2021/06/04 11:49:05;;;;;;;11.07;7.13;;;26.70;99.30;;;;;;4994941;28;20386;-70
2021/06/04 11:51:41;;;;;;;14.88;8.68;;;26.80;99.40;;;;;;4994699;28;20042;-69
2021/06/04 11:54:31;;;;;;;13.02;8.25;;;26.60;98.90;;;;;;4986426;28;20026;-69
2021/06/04 11:57:00;;;;;;;18.13;7.95;;;26.60;99.10;;;;;;4992916;28;20232;-68
2021/06/04 11:59:46;;;;;;;12.50;7.95;;;26.80;99.30;;;;;;4992906;28;20038;-69
2021/06/04 12:02:48;;;;;;;13.80;7.30;;;27.00;98.80;;;;;;4994689;28;20035;-69
2021/06/04 12:05:19;;;;;;;14.10;7.03;;;27.10;99.00;;;;;;4993546;28;20034;-70
2021/06/04 12:08:16;;;;;;;12.25;6.97;;;27.20;98.90;;;;;;4993800;28;20048;-69
2021/06/04 12:10:54;;;;;;;15.18;7.72;;;27.20;98.70;;;;;;4992569;28;20030;-70
2021/06/04 12:13:30;;;;;;;16.15;8.35;;;27.20;99.00;;;;;;4992487;28;20038;-68
2021/06/04 12:16:16;;;;;;;18.55;8.43;;;27.10;98.20;;;;;;4993820;28;20463;-69
2021/06/04 12:19:14;;;;;;;12.38;7.10;;;27.10;98.20;;;;;;4992671;28;20030;-68
2021/06/04 12:21:43;;;;;;;16.42;6.40;;;27.00;98.50;;;;;;4993701;28;20028;-69
2021/06/04 12:24:20;;;;;;;14.88;7.93;;;27.00;99.10;;;;;;4993154;28;20483;-69
2021/06/04 12:26:49;;;;;;;14.95;7.30;;;26.90;98.60;;;;;;4991901;28;20096;-70
2021/06/04 12:29:24;;;;;;;12.45;7.57;;;26.90;98.70;;;;;;4992692;28;20042;-71
2021/06/04 12:32:02;;;;;;;14.35;7.75;;;26.80;98.90;;;;;;4994337;28;20035;-69
2021/06/04 12:34:48;;;;;;;12.68;5.95;;;26.90;98.90;;;;;;4993974;28;20125;-69
2021/06/04 12:37:20;;;;;;;9.93;6.30;;;27.00;98.80;;;;;;4991810;28;20038;-72
2021/06/04 12:39:51;;;;;;;11.57;6.50;;;27.00;99.50;;;;;;4992131;28;20030;-71
2021/06/04 12:42:34;;;;;;;21.75;6.85;;;26.90;99.10;;;;;;4993450;28;20386;-70
2021/06/04 12:45:15;;;;;;;13.15;6.47;;;26.50;98.80;;;;;;4989413;28;20034;-69
2021/06/04 12:47:53;;;;;;;16.00;7.72;;;26.40;98.80;;;;;;4991645;28;20035;-68
2021/06/04 12:50:26;;;;;;;10.00;6.20;;;26.50;99.00;;;;;;4992390;28;20030;-68
2021/06/04 12:53:12;;;;;;;8.70;5.95;;;26.80;98.60;;;;;;4992010;28;20034;-69
2021/06/04 12:55:39;;;;;;;9.02;5.70;;;27.20;98.70;;;;;;4992967;28;20026;-68
2021/06/04 12:58:20;;;;;;;;;;;27.30;98.30;;;;;;4992564;28;20032;-69
2021/06/04 13:00:46;;;;;;;9.50;5.75;;;27.10;98.10;;;;;;4986677;28;19921;-69
2021/06/04 13:03:18;;;;;;;10.30;6.18;;;27.30;98.50;;;;;;4992502;28;20030;-68
2021/06/04 13:05:49;;;;;;;9.73;6.68;;;27.50;97.70;;;;;;4992309;28;20034;-69
2021/06/04 13:08:16;;;;;;;9.10;6.53;;;27.30;97.50;;;;;;4992006;28;20105;-69